createdAt,value
2017-12-27T00:01:10.540Z,2.97
2017-12-27T00:03:44.710Z,5.73
2017-12-27T00:06:20.271Z,2.00
2017-12-27T00:08:53.980Z,1.93
2017-12-27T00:11:27.448Z,2.60
2017-12-27T00:14:01.601Z,2.70
2017-12-27T00:16:34.974Z,3.80
2017-12-27T00:19:08.801Z,1.70
2017-12-27T00:21:42.475Z,5.13
2017-12-27T00:24:15.873Z,4.03
2017-12-27T00:26:49.301Z,2.73
2017-12-27T00:29:22.883Z,4.37
2017-12-27T00:31:51.242Z,1.63
2017-12-27T00:34:18.945Z,3.03
2017-12-27T00:36:47.265Z,3.03
2017-12-27T00:39:15.156Z,1.93
2017-12-27T00:41:43.028Z,1.70
2017-12-27T00:44:10.993Z,1.40
2017-12-27T00:46:38.825Z,1.80
2017-12-27T00:49:06.834Z,3.93
2017-12-27T00:51:34.522Z,3.83
2017-12-27T00:54:02.257Z,1.50
2017-12-27T00:56:30.064Z,2.73
2017-12-27T00:58:57.790Z,2.30
2017-12-27T01:01:25.550Z,2.47
2017-12-27T01:03:53.555Z,1.43
2017-12-27T01:06:21.230Z,2.20
2017-12-27T01:08:49.254Z,2.40
2017-12-27T01:11:17.415Z,3.90
2017-12-27T01:13:46.096Z,1.60
2017-12-27T01:16:13.934Z,1.80
2017-12-27T01:18:42.450Z,2.50
2017-12-27T01:24:03.177Z,2.43
2017-12-27T01:26:31.786Z,1.93
2017-12-27T01:28:59.505Z,2.30
2017-12-27T01:31:27.157Z,2.53
2017-12-27T01:33:56.386Z,1.97
2017-12-27T01:36:24.167Z,2.30
2017-12-27T01:38:52.469Z,1.83
2017-12-27T01:41:20.307Z,2.23
2017-12-27T01:43:48.039Z,2.17
2017-12-27T01:46:16.629Z,1.73
2017-12-27T01:48:44.326Z,2.23
2017-12-27T01:51:12.099Z,3.23
2017-12-27T01:53:40.199Z,3.50
2017-12-27T01:56:07.865Z,1.60
2017-12-27T01:58:36.281Z,6.47
2017-12-27T02:01:04.149Z,1.63
2017-12-27T02:03:32.722Z,2.60
2017-12-27T02:06:01.182Z,1.47
2017-12-27T02:08:28.851Z,2.97
2017-12-27T02:10:56.698Z,1.50
2017-12-27T02:13:24.505Z,1.80
2017-12-27T02:15:52.288Z,1.53
2017-12-27T02:18:21.233Z,1.93
2017-12-27T02:20:48.954Z,1.80
2017-12-27T02:23:16.614Z,1.50
2017-12-27T02:25:44.312Z,1.77
2017-12-27T02:28:11.958Z,2.10
2017-12-27T02:30:40.033Z,1.27
2017-12-27T02:33:07.907Z,3.23
2017-12-27T02:35:35.624Z,1.73
2017-12-27T02:38:03.330Z,3.37
2017-12-27T02:40:31.029Z,2.20
2017-12-27T02:42:59.244Z,1.80
2017-12-27T02:45:27.104Z,5.30
2017-12-27T02:47:54.804Z,2.90
2017-12-27T02:50:23.828Z,2.80
2017-12-27T02:52:52.319Z,1.30
2017-12-27T02:55:20.887Z,5.40
2017-12-27T02:57:55.675Z,1.97
2017-12-27T03:00:23.409Z,1.77
2017-12-27T03:02:51.288Z,2.77
2017-12-27T03:05:19.175Z,4.30
2017-12-27T03:07:47.095Z,4.00
2017-12-27T03:10:14.956Z,1.77
2017-12-27T03:12:42.822Z,2.33
2017-12-27T03:15:10.514Z,1.60
2017-12-27T03:17:38.431Z,4.03
2017-12-27T03:20:06.178Z,1.47
2017-12-27T03:22:33.956Z,1.40
2017-12-27T03:25:01.694Z,3.50
2017-12-27T03:27:29.498Z,2.40
2017-12-27T03:29:57.364Z,2.43
2017-12-27T03:32:25.129Z,4.10
2017-12-27T03:34:52.938Z,1.30
2017-12-27T03:37:21.387Z,1.23
2017-12-27T03:39:49.848Z,3.10
2017-12-27T03:42:17.800Z,1.20
2017-12-27T03:44:46.648Z,1.90
2017-12-27T03:47:15.149Z,1.70
2017-12-27T03:49:42.856Z,1.37
2017-12-27T03:52:10.561Z,1.80
2017-12-27T03:54:38.590Z,1.53
2017-12-27T03:57:06.338Z,1.20
2017-12-27T03:59:34.156Z,1.30
2017-12-27T04:02:04.042Z,1.30
2017-12-27T04:04:32.461Z,2.10
2017-12-27T04:07:01.068Z,3.60
2017-12-27T04:09:29.808Z,4.30
2017-12-27T04:12:01.105Z,4.30
2017-12-27T04:14:29.713Z,2.80
2017-12-27T04:16:57.541Z,3.43
2017-12-27T04:19:25.382Z,2.40
2017-12-27T04:21:53.154Z,1.73
2017-12-27T04:24:21.958Z,1.63
2017-12-27T04:26:50.033Z,1.53
2017-12-27T04:29:18.763Z,1.10
2017-12-27T04:31:47.412Z,1.03
2017-12-27T04:34:15.303Z,2.70
2017-12-27T04:36:43.104Z,1.43
2017-12-27T04:39:10.974Z,1.20
2017-12-27T04:41:38.694Z,2.00
2017-12-27T04:44:06.363Z,1.67
2017-12-27T04:46:34.832Z,0.90
2017-12-27T04:49:02.493Z,1.53
2017-12-27T04:51:30.333Z,1.57
2017-12-27T04:53:57.999Z,1.30
2017-12-27T04:56:25.826Z,2.03
2017-12-27T04:58:54.221Z,1.30
2017-12-27T05:01:22.016Z,1.03
2017-12-27T05:03:49.956Z,1.50
2017-12-27T05:06:17.623Z,1.10
2017-12-27T05:08:45.437Z,1.87
2017-12-27T05:11:13.386Z,1.30
2017-12-27T05:13:41.045Z,1.73
2017-12-27T05:16:09.717Z,1.17
2017-12-27T05:18:37.439Z,1.57
2017-12-27T05:21:05.166Z,2.30
2017-12-27T05:23:33.648Z,1.10
2017-12-27T05:26:01.370Z,1.10
2017-12-27T05:28:29.949Z,2.13
2017-12-27T05:30:57.769Z,1.23
2017-12-27T05:33:26.638Z,1.73
2017-12-27T05:35:54.640Z,1.53
2017-12-27T05:38:22.374Z,1.23
2017-12-27T05:40:50.082Z,1.10
2017-12-27T05:43:17.726Z,2.23
2017-12-27T05:45:46.312Z,2.83
2017-12-27T05:48:14.307Z,1.50
2017-12-27T05:50:42.263Z,0.93
2017-12-27T05:53:09.992Z,1.10
2017-12-27T05:55:37.950Z,1.83
2017-12-27T05:58:05.675Z,3.00
2017-12-27T06:00:33.628Z,3.47
2017-12-27T06:03:02.503Z,1.43
2017-12-27T06:05:30.401Z,1.70
2017-12-27T06:07:58.251Z,2.37
2017-12-27T06:10:25.900Z,1.33
2017-12-27T06:12:54.371Z,2.20
2017-12-27T06:15:23.090Z,1.37
2017-12-27T06:17:51.793Z,1.40
2017-12-27T06:20:19.506Z,1.60
2017-12-27T06:22:47.971Z,2.10
2017-12-27T06:25:15.765Z,1.93
2017-12-27T06:27:45.003Z,1.50
2017-12-27T06:30:12.802Z,3.07
2017-12-27T06:32:40.734Z,1.57
2017-12-27T06:35:08.606Z,4.07
2017-12-27T06:37:37.223Z,1.87
2017-12-27T06:40:05.205Z,2.07
2017-12-27T06:42:32.885Z,3.47
2017-12-27T06:45:00.719Z,1.50
2017-12-27T06:47:28.714Z,2.10
2017-12-27T06:49:56.685Z,1.80
2017-12-27T06:52:25.010Z,3.37
2017-12-27T06:54:52.765Z,3.13
2017-12-27T06:57:20.415Z,3.07
2017-12-27T06:59:48.059Z,2.30
2017-12-27T07:02:16.878Z,3.73
2017-12-27T07:04:44.705Z,2.20
2017-12-27T07:07:13.267Z,2.50
2017-12-27T07:09:41.084Z,2.10
2017-12-27T07:12:09.534Z,2.60
2017-12-27T07:20:37.917Z,3.00
2017-12-27T07:23:05.651Z,3.57
2017-12-27T07:25:35.948Z,3.60
2017-12-27T07:28:03.694Z,10.70
2017-12-27T07:30:32.458Z,5.20
2017-12-27T07:33:00.914Z,3.27
2017-12-27T07:35:28.870Z,2.67
2017-12-27T07:37:56.610Z,4.10
2017-12-27T07:40:25.127Z,2.40
2017-12-27T07:42:53.046Z,4.40
2017-12-27T07:45:20.779Z,3.67
2017-12-27T07:47:48.587Z,3.70
2017-12-27T07:50:18.207Z,3.17
2017-12-27T07:52:46.389Z,6.00
2017-12-27T07:55:14.088Z,2.90
2017-12-27T07:57:42.027Z,2.37
2017-12-27T08:00:09.676Z,2.70
2017-12-27T08:02:37.609Z,2.63
2017-12-27T08:05:05.689Z,2.80
2017-12-27T08:07:33.743Z,2.20
2017-12-27T08:10:01.623Z,6.27
2017-12-27T08:12:29.319Z,3.80
2017-12-27T08:14:57.188Z,1.40
2017-12-27T08:17:25.031Z,1.73
2017-12-27T08:19:52.742Z,1.83
2017-12-27T08:22:21.150Z,1.60
2017-12-27T08:24:48.798Z,2.90
2017-12-27T08:27:16.499Z,5.63
2017-12-27T08:29:44.203Z,1.40
2017-12-27T08:32:12.667Z,1.00
2017-12-27T08:34:40.314Z,1.77
2017-12-27T08:37:08.022Z,6.47
2017-12-27T08:39:35.675Z,41.37
2017-12-27T08:42:03.326Z,2.17
2017-12-27T08:44:31.786Z,1.60
2017-12-27T08:47:00.202Z,2.33
2017-12-27T08:49:27.914Z,2.37
2017-12-27T08:51:55.559Z,1.17
2017-12-27T08:54:23.202Z,4.27
2017-12-27T08:56:50.900Z,3.03
2017-12-27T08:59:19.315Z,2.57
2017-12-27T09:01:47.018Z,3.90
2017-12-27T09:04:14.722Z,7.53
2017-12-27T09:06:42.366Z,4.60
2017-12-27T09:09:10.839Z,5.57
2017-12-27T09:11:39.247Z,7.10
2017-12-27T09:14:06.942Z,5.30
2017-12-27T09:16:34.590Z,15.70
2017-12-27T09:19:02.291Z,4.40
2017-12-27T09:21:30.758Z,8.00
2017-12-27T09:23:58.403Z,3.00
2017-12-27T09:26:26.121Z,4.97
2017-12-27T09:28:53.812Z,6.53
2017-12-27T09:31:21.468Z,5.83
2017-12-27T09:33:49.162Z,3.90
2017-12-27T09:36:17.573Z,4.40
2017-12-27T09:38:45.294Z,2.60
2017-12-27T09:41:12.954Z,3.73
2017-12-27T09:43:40.604Z,2.60
2017-12-27T09:46:08.319Z,3.17
2017-12-27T09:48:35.982Z,2.87
2017-12-27T09:51:03.640Z,9.57
2017-12-27T09:53:31.342Z,2.60
2017-12-27T09:55:58.995Z,54.83
2017-12-27T09:58:26.702Z,8.57
2017-12-27T10:00:54.415Z,19.90
2017-12-27T10:03:22.072Z,42.13
2017-12-27T10:05:49.794Z,42.37
2017-12-27T10:08:17.451Z,56.87
2017-12-27T10:10:45.103Z,11.00
2017-12-27T10:13:14.029Z,23.70
2017-12-27T10:15:41.695Z,24.20
2017-12-27T10:18:09.339Z,5.60
2017-12-27T10:20:37.066Z,18.90
2017-12-27T10:23:04.734Z,15.80
2017-12-27T10:25:32.379Z,2.70
2017-12-27T10:28:00.102Z,2.37
2017-12-27T10:30:27.802Z,4.93
2017-12-27T10:33:02.582Z,2.80
2017-12-27T10:35:30.237Z,2.20
2017-12-27T10:37:57.931Z,3.90
2017-12-27T10:42:56.599Z,3.90
2017-12-27T10:45:24.274Z,3.77
2017-12-27T10:47:51.990Z,3.23
2017-12-27T10:50:19.642Z,2.20
2017-12-27T10:52:47.327Z,5.10
2017-12-27T10:55:15.083Z,3.53
2017-12-27T10:57:42.751Z,2.37
2017-12-27T11:00:10.458Z,3.27
2017-12-27T11:02:38.507Z,3.10
2017-12-27T11:05:06.978Z,3.10
2017-12-27T11:07:34.631Z,1.97
2017-12-27T11:10:02.378Z,2.50
2017-12-27T11:12:30.050Z,2.90
2017-12-27T11:14:57.804Z,4.00
2017-12-27T11:17:25.522Z,2.83
2017-12-27T11:19:53.181Z,3.67
2017-12-27T11:22:20.887Z,5.70
2017-12-27T11:24:48.527Z,4.13
2017-12-27T11:27:16.919Z,4.10
2017-12-27T11:29:44.625Z,2.53
2017-12-27T11:32:12.347Z,4.57
2017-12-27T11:34:40.006Z,4.27
2017-12-27T11:37:07.667Z,2.60
2017-12-27T11:39:35.963Z,5.27
2017-12-27T11:42:04.419Z,8.20
2017-12-27T11:44:33.053Z,1.37
2017-12-27T11:47:00.846Z,1.70
2017-12-27T11:49:29.312Z,2.00
2017-12-27T11:51:57.010Z,1.73
2017-12-27T11:54:25.434Z,1.10
2017-12-27T11:56:53.146Z,3.03
2017-12-27T11:59:21.623Z,1.27
2017-12-27T12:01:50.272Z,2.10
2017-12-27T12:04:17.949Z,3.17
2017-12-27T12:06:45.601Z,0.90
2017-12-27T12:09:13.842Z,1.10
2017-12-27T12:11:41.508Z,1.20
2017-12-27T12:14:09.284Z,1.33
2017-12-27T12:16:37.097Z,5.03
2017-12-27T12:19:05.514Z,3.70
2017-12-27T12:21:33.265Z,1.67
2017-12-27T12:24:00.911Z,5.83
2017-12-27T12:26:28.618Z,6.10
2017-12-27T12:28:56.317Z,1.40
2017-12-27T12:31:24.822Z,1.90
2017-12-27T12:33:53.214Z,1.47
2017-12-27T12:36:20.950Z,1.13
2017-12-27T12:38:49.653Z,1.50
2017-12-27T12:41:17.295Z,1.00
2017-12-27T12:43:44.994Z,1.00
2017-12-27T12:46:12.642Z,1.00
2017-12-27T12:48:40.375Z,1.33
2017-12-27T12:51:08.027Z,1.10
2017-12-27T12:53:35.686Z,2.03
2017-12-27T12:56:03.402Z,1.43
2017-12-27T12:58:31.055Z,2.33
2017-12-27T13:00:58.767Z,6.40
2017-12-27T13:03:26.431Z,5.57
2017-12-27T13:05:54.159Z,7.00
2017-12-27T13:08:22.582Z,3.37
2017-12-27T13:10:50.342Z,1.70
2017-12-27T13:13:18.081Z,2.53
2017-12-27T13:15:45.834Z,2.10
2017-12-27T13:18:14.280Z,2.67
2017-12-27T13:20:42.023Z,2.20
2017-12-27T13:23:09.676Z,3.20
2017-12-27T13:25:37.415Z,3.83
2017-12-27T13:28:05.162Z,1.90
2017-12-27T13:30:32.846Z,6.83
2017-12-27T13:33:01.823Z,2.93
2017-12-27T13:35:29.508Z,3.57
2017-12-27T13:37:57.270Z,4.20
2017-12-27T13:40:24.921Z,5.73
2017-12-27T13:42:52.647Z,2.17
2017-12-27T13:45:21.086Z,2.20
2017-12-27T13:47:48.737Z,4.00
2017-12-27T13:50:16.442Z,3.10
2017-12-27T13:52:44.848Z,2.63
2017-12-27T13:55:12.613Z,2.80
2017-12-27T13:57:40.265Z,2.80
2017-12-27T14:00:08.148Z,1.80
2017-12-27T14:02:35.828Z,2.43
2017-12-27T14:05:03.579Z,3.13
2017-12-27T14:07:31.286Z,1.73
2017-12-27T14:09:58.943Z,2.10
2017-12-27T14:12:27.414Z,2.40
2017-12-27T14:14:55.844Z,2.20
2017-12-27T14:17:23.558Z,4.10
2017-12-27T14:19:51.978Z,2.60
2017-12-27T14:22:20.563Z,2.00
2017-12-27T14:24:48.223Z,5.43
2017-12-27T14:27:15.899Z,1.80
2017-12-27T14:29:44.585Z,1.70
2017-12-27T14:32:12.234Z,2.33
2017-12-27T14:34:39.939Z,2.30
2017-12-27T14:37:07.630Z,5.87
2017-12-27T14:39:35.363Z,2.33
2017-12-27T14:42:03.022Z,3.17
2017-12-27T14:44:30.671Z,3.27
2017-12-27T14:46:58.426Z,3.63
2017-12-27T14:49:27.011Z,3.90
2017-12-27T14:51:54.675Z,3.93
2017-12-27T14:54:23.155Z,7.10
2017-12-27T14:56:51.577Z,2.43
2017-12-27T14:59:19.306Z,4.57
2017-12-27T15:01:46.967Z,3.23
2017-12-27T15:04:14.690Z,2.87
2017-12-27T15:06:42.386Z,2.60
2017-12-27T15:09:10.042Z,3.10
2017-12-27T15:11:37.754Z,3.60
2017-12-27T15:14:05.458Z,5.93
2017-12-27T15:16:33.117Z,3.30
2017-12-27T15:19:00.815Z,3.77
2017-12-27T15:21:28.510Z,4.60
2017-12-27T15:23:56.166Z,4.33
2017-12-27T15:26:23.858Z,15.10
2017-12-27T15:28:51.501Z,7.73
2017-12-27T15:31:19.954Z,4.33
2017-12-27T15:33:47.607Z,5.20
2017-12-27T15:36:15.302Z,8.30
2017-12-27T15:38:43.716Z,4.00
2017-12-27T15:41:11.402Z,3.10
2017-12-27T15:43:39.051Z,3.27
2017-12-27T15:46:06.744Z,4.20
2017-12-27T15:48:35.199Z,5.17
2017-12-27T15:51:02.891Z,4.03
2017-12-27T15:53:31.311Z,3.13
2017-12-27T15:55:59.003Z,4.40
2017-12-27T15:58:26.654Z,5.17
2017-12-27T16:00:54.388Z,13.07
2017-12-27T16:03:22.039Z,7.03
2017-12-27T16:05:49.758Z,15.50
2017-12-27T16:08:18.210Z,13.00
2017-12-27T16:10:45.911Z,10.40
2017-12-27T16:13:14.319Z,8.70
2017-12-27T16:15:42.014Z,6.07
2017-12-27T16:18:09.697Z,6.80
2017-12-27T16:20:38.121Z,5.23
2017-12-27T16:23:05.811Z,3.20
2017-12-27T16:25:33.458Z,3.07
2017-12-27T16:28:01.153Z,2.80
2017-12-27T16:30:29.574Z,2.53
2017-12-27T16:32:57.266Z,4.77
2017-12-27T16:35:24.930Z,3.17
2017-12-27T16:37:52.620Z,3.40
2017-12-27T16:40:20.269Z,2.90
2017-12-27T16:42:48.724Z,2.43
2017-12-27T16:45:16.382Z,3.30
2017-12-27T16:47:44.095Z,3.43
2017-12-27T16:50:11.751Z,3.90
2017-12-27T16:52:39.438Z,4.27
2017-12-27T16:55:07.082Z,4.23
2017-12-27T16:57:34.770Z,4.67
2017-12-27T17:00:02.421Z,3.60
2017-12-27T17:02:30.127Z,5.40
2017-12-27T17:04:58.553Z,7.23
2017-12-27T17:07:26.257Z,4.30
2017-12-27T17:09:54.666Z,5.80
2017-12-27T17:12:22.354Z,4.90
2017-12-27T17:14:50.012Z,3.85
2017-12-27T17:17:17.702Z,6.90
2017-12-27T17:19:46.130Z,6.17
2017-12-27T17:22:13.874Z,6.13
2017-12-27T17:24:41.566Z,5.67
2017-12-27T17:27:09.228Z,4.07
2017-12-27T17:29:36.918Z,6.30
2017-12-27T17:32:05.398Z,5.87
2017-12-27T17:34:33.088Z,6.00
2017-12-27T17:37:00.771Z,7.57
2017-12-27T17:39:28.463Z,9.63
2017-12-27T17:41:56.114Z,7.77
2017-12-27T17:44:23.850Z,10.33
2017-12-27T17:46:51.534Z,9.60
2017-12-27T17:49:19.279Z,12.50
2017-12-27T17:51:46.997Z,10.73
2017-12-27T17:54:15.459Z,26.80
2017-12-27T17:56:43.888Z,15.77
2017-12-27T17:59:11.575Z,14.13
2017-12-27T18:01:39.329Z,15.63
2017-12-27T18:04:07.026Z,11.73
2017-12-27T18:06:35.453Z,7.17
2017-12-27T18:09:03.233Z,7.23
2017-12-27T18:11:30.876Z,6.97
2017-12-27T18:13:58.714Z,7.43
2017-12-27T18:16:26.374Z,17.63
2017-12-27T18:18:54.073Z,14.90
2017-12-27T18:21:21.746Z,18.20
2017-12-27T18:23:49.453Z,17.77
2017-12-27T18:26:17.098Z,10.33
2017-12-27T18:28:44.968Z,8.00
2017-12-27T18:31:12.860Z,10.60
2017-12-27T18:33:40.633Z,9.50
2017-12-27T18:36:08.494Z,11.70
2017-12-27T18:38:36.384Z,13.90
2017-12-27T18:41:04.338Z,13.37
2017-12-27T18:43:32.089Z,14.43
2017-12-27T18:45:59.739Z,14.00
2017-12-27T18:48:27.622Z,15.17
2017-12-27T18:50:56.956Z,17.20
2017-12-27T18:53:25.419Z,17.20
2017-12-27T18:55:53.834Z,13.40
2017-12-27T18:58:21.588Z,14.73
2017-12-27T19:00:49.522Z,15.90
2017-12-27T19:03:17.255Z,14.77
2017-12-27T19:05:45.093Z,20.07
2017-12-27T19:08:13.027Z,15.00
2017-12-27T19:10:41.586Z,12.67
2017-12-27T19:13:10.230Z,14.20
2017-12-27T19:15:38.237Z,18.33
2017-12-27T19:18:06.409Z,23.20
2017-12-27T19:20:34.855Z,32.37
2017-12-27T19:23:02.591Z,20.07
2017-12-27T19:25:30.272Z,22.20
2017-12-27T19:27:58.218Z,17.90
2017-12-27T19:30:28.358Z,8.63
2017-12-27T19:32:56.400Z,14.20
2017-12-27T19:35:24.252Z,14.03
2017-12-27T19:37:52.219Z,18.33
2017-12-27T19:40:20.404Z,15.00
2017-12-27T19:42:49.327Z,25.47
2017-12-27T19:45:17.339Z,18.63
2017-12-27T19:47:45.920Z,17.37
2017-12-27T19:50:13.639Z,15.80
2017-12-27T19:52:42.069Z,13.40
2017-12-27T19:55:09.865Z,13.43
2017-12-27T19:57:37.650Z,12.00
2017-12-27T20:00:05.671Z,10.73
2017-12-27T20:02:33.722Z,9.10
2017-12-27T20:05:01.670Z,7.03
2017-12-27T20:07:30.119Z,7.67
2017-12-27T20:09:57.940Z,6.30
2017-12-27T20:12:25.607Z,5.73
2017-12-27T20:14:53.355Z,6.40
2017-12-27T20:17:21.050Z,5.77
2017-12-27T20:19:48.866Z,6.23
2017-12-27T20:22:17.311Z,5.90
2017-12-27T20:24:45.030Z,5.10
2017-12-27T20:27:12.825Z,7.50
2017-12-27T20:29:40.628Z,5.23
2017-12-27T20:32:09.086Z,7.30
2017-12-27T20:34:37.637Z,7.30
2017-12-27T20:37:05.404Z,8.73
2017-12-27T20:39:33.508Z,6.20
2017-12-27T20:42:01.681Z,7.90
2017-12-27T20:44:30.145Z,6.17
2017-12-27T20:46:57.819Z,9.10
2017-12-27T20:49:26.338Z,7.20
2017-12-27T20:51:53.990Z,5.70
2017-12-27T20:54:21.796Z,7.03
2017-12-27T20:56:49.644Z,7.87
2017-12-27T20:59:17.380Z,9.50
2017-12-27T21:01:45.036Z,8.03
2017-12-27T21:04:12.935Z,12.00
2017-12-27T21:06:40.615Z,10.13
2017-12-27T21:09:08.328Z,8.10
2017-12-27T21:11:35.979Z,8.10
2017-12-27T21:14:03.683Z,7.17
2017-12-27T21:16:31.342Z,8.30
2017-12-27T21:18:59.039Z,8.73
2017-12-27T21:21:27.124Z,10.03
2017-12-27T21:23:54.962Z,14.40
2017-12-27T21:26:23.374Z,16.33
2017-12-27T21:28:51.071Z,12.17
2017-12-27T21:31:18.726Z,8.03
2017-12-27T21:33:46.414Z,7.10
2017-12-27T21:36:14.835Z,13.90
2017-12-27T21:38:42.476Z,9.20
2017-12-27T21:41:10.167Z,9.17
2017-12-27T21:43:37.836Z,6.83
2017-12-27T21:46:05.569Z,8.73
2017-12-27T21:48:38.910Z,9.90
2017-12-27T21:51:06.598Z,7.90
2017-12-27T21:53:34.284Z,8.77
2017-12-27T21:56:01.970Z,10.73
2017-12-27T21:58:35.355Z,9.67
2017-12-27T22:01:08.846Z,9.13
2017-12-27T22:03:36.499Z,9.87
2017-12-27T22:06:04.222Z,11.40
2017-12-27T22:08:31.872Z,9.37
2017-12-27T22:11:00.516Z,8.97
2017-12-27T22:13:28.290Z,11.90
2017-12-27T22:15:56.230Z,11.37
2017-12-27T22:18:23.899Z,11.80
2017-12-27T22:20:57.636Z,20.70
2017-12-27T22:23:26.068Z,16.70
2017-12-27T22:25:54.126Z,14.07
2017-12-27T22:28:21.813Z,13.10
2017-12-27T22:30:49.521Z,14.40
2017-12-27T22:33:17.178Z,15.43
2017-12-27T22:35:44.871Z,12.03
2017-12-27T22:38:12.519Z,9.30
2017-12-27T22:40:40.211Z,8.07
2017-12-27T22:43:07.938Z,9.13
2017-12-27T22:45:35.805Z,9.80
2017-12-27T22:48:03.612Z,7.87
2017-12-27T22:50:31.405Z,8.63
2017-12-27T22:52:59.123Z,8.97
2017-12-27T22:55:26.809Z,9.30
2017-12-27T22:57:55.372Z,7.83
2017-12-27T23:00:23.255Z,6.40
2017-12-27T23:02:51.710Z,7.50
2017-12-27T23:05:19.363Z,7.57
2017-12-27T23:07:47.068Z,6.43
2017-12-27T23:10:14.718Z,7.20
2017-12-27T23:12:43.173Z,6.47
2017-12-27T23:15:10.830Z,8.23
2017-12-27T23:17:38.519Z,5.90
2017-12-27T23:20:06.171Z,6.60
2017-12-27T23:22:34.634Z,7.37
2017-12-27T23:25:03.087Z,5.10
2017-12-27T23:27:31.553Z,4.40
2017-12-27T23:29:59.203Z,6.57
2017-12-27T23:32:26.886Z,5.63
2017-12-27T23:34:54.536Z,8.13
2017-12-27T23:37:22.227Z,5.23
2017-12-27T23:39:50.650Z,3.77
2017-12-27T23:42:18.359Z,5.20
2017-12-27T23:44:46.027Z,7.13
2017-12-27T23:47:14.491Z,3.90
2017-12-27T23:49:42.149Z,4.33
2017-12-27T23:52:09.809Z,6.23
2017-12-27T23:54:37.501Z,4.90
2017-12-27T23:57:05.146Z,5.80
2017-12-27T23:59:33.605Z,3.87
